MET'MAP v2.0
soon released !

Expected late october,
this new version will be
more efficient, smarter,
and hosted on a brand new
server x3 powerfull...
...and still free !


Not compatible ?
Try the mobile version !

LOG IN : | Subscribe | Disclaimer | Who is Orbifly ? |
ICAO code :

TAF - DAUT Timimoun - 02 Jun 2020 05:12 UTC - Data Source NOAA   


- Airport Elevation : 1027 ft
- IATA code : TMX
- No reported NOTAMs.


DAUT - Timimoun

Latest METAR recorded : 2015/08/11 08:00 DAUT 110800Z 09008KT 7000 NSC 35/15 Q1015
TAF TAF DAUT
Valid from the 02 at 03:00 until the 02 at 12:00 UTC


020200Z 0203/0212 26008KT 8000 NSC

Source NOAA


MET'MAP, your aeronautical weather chart ! - Copyright ORBIFLY December 2007

Programming & Development : Alexandra Zaïnal
Co-Developer : Marc-Olivier Méhu
Technical & hardware support : Manuel Goepfert
Concept & Financing : Baudouin d'Aumeries